Time;durP1;ratioP1;P1;durP2;ratioP2;P2;SDS_P1;SDS_P2;PMS_P1;PMS_P2;Temp;Humidity;BMP_temperature;BMP_pressure;BME280_temperature;BME280_humidity;BME280_pressure;Samples;Min_cycle;Max_cycle;Signal;HPM_P1;HPM_P2
2023/12/05 00:00:26;;;;;;;36.23;21.60;;;-1.00;22.50;;;;;;5027250;28;20451;-66
2023/12/05 00:02:53;;;;;;;34.27;25.00;;;-0.90;22.70;;;;;;5025225;28;20468;-66
2023/12/05 00:05:19;;;;;;;34.80;22.73;;;-0.90;22.90;;;;;;5023621;28;20461;-66
2023/12/05 00:07:46;;;;;;;36.77;26.77;;;-0.90;23.00;;;;;;5025875;28;20478;-66
2023/12/05 00:10:14;;;;;;;34.57;23.27;;;-0.90;23.10;;;;;;5025158;28;20563;-66
2023/12/05 00:12:41;;;;;;;34.20;22.50;;;-0.80;23.40;;;;;;5026059;28;20470;-66
2023/12/05 00:15:10;;;;;;;35.63;23.97;;;-0.80;23.60;;;;;;5026816;28;20558;-66
2023/12/05 00:17:36;;;;;;;37.70;23.77;;;-0.80;24.00;;;;;;5026901;28;20570;-66
2023/12/05 00:20:04;;;;;;;37.13;22.10;;;-0.70;24.10;;;;;;5022757;28;20478;-66
2023/12/05 00:22:31;;;;;;;36.20;23.67;;;-0.70;24.20;;;;;;5023819;28;20457;-66
2023/12/05 00:24:58;;;;;;;38.30;23.37;;;-0.70;24.20;;;;;;5025406;28;20999;-66
2023/12/05 00:27:24;;;;;;;38.90;23.60;;;-0.60;24.20;;;;;;5028077;28;20542;-66
2023/12/05 00:29:51;;;;;;;31.77;22.63;;;-0.50;25.00;;;;;;5026486;28;20581;-66
2023/12/05 00:32:20;;;;;;;35.97;23.97;;;-0.50;25.40;;;;;;5024206;28;20835;-66
2023/12/05 00:34:46;;;;;;;42.47;26.47;;;-0.40;25.40;;;;;;5031857;28;20959;-66
2023/12/05 00:37:13;;;;;;;38.80;23.00;;;-0.40;25.40;;;;;;5025215;28;20613;-66
2023/12/05 00:39:40;;;;;;;36.63;24.37;;;-0.40;25.70;;;;;;5025840;28;20581;-66
2023/12/05 00:42:08;;;;;;;40.13;24.43;;;-0.30;26.00;;;;;;5025396;28;20459;-66
2023/12/05 00:44:35;;;;;;;36.13;24.23;;;-0.30;26.00;;;;;;5022990;28;20463;-66
2023/12/05 00:47:04;;;;;;;36.07;23.47;;;-0.20;26.20;;;;;;5024249;28;20578;-66
2023/12/05 00:49:34;;;;;;;34.73;22.37;;;-0.20;26.30;;;;;;5021959;28;20891;-66
2023/12/05 00:52:01;;;;;;;39.03;24.30;;;-0.20;27.10;;;;;;5027248;28;20483;-66
2023/12/05 00:54:27;;;;;;;38.60;25.03;;;-0.20;26.60;;;;;;5023626;28;20462;-66
2023/12/05 00:56:54;;;;;;;38.87;24.00;;;-0.10;26.60;;;;;;5022993;28;20998;-66
2023/12/05 00:59:21;;;;;;;37.10;22.50;;;0.00;26.60;;;;;;5027721;28;20473;-66
2023/12/05 01:01:48;;;;;;;37.30;22.27;;;0.00;26.60;;;;;;5022698;28;20473;-67
2023/12/05 01:04:15;;;;;;;33.33;21.57;;;0.10;27.80;;;;;;5021380;28;20458;-66
2023/12/05 01:06:43;;;;;;;39.70;22.63;;;0.10;27.20;;;;;;5024729;28;20485;-66
2023/12/05 01:09:10;;;;;;;36.23;21.47;;;0.20;27.40;;;;;;5022822;28;20463;-66
2023/12/05 01:11:37;;;;;;;34.53;21.70;;;0.20;27.40;;;;;;5027279;28;20463;-66
2023/12/05 01:14:04;;;;;;;38.67;21.70;;;0.30;27.50;;;;;;5021394;28;20465;-66
2023/12/05 01:16:31;;;;;;;33.80;20.40;;;0.30;27.60;;;;;;5024143;28;20491;-66
2023/12/05 01:18:58;;;;;;;35.07;21.17;;;0.40;27.90;;;;;;5024603;28;20467;-66
2023/12/05 01:21:24;;;;;;;33.37;20.40;;;0.40;28.10;;;;;;5025259;28;20455;-66
2023/12/05 01:23:53;;;;;;;34.80;21.03;;;0.40;28.60;;;;;;5025023;28;20459;-66
2023/12/05 01:26:20;;;;;;;31.43;20.97;;;0.40;28.90;;;;;;5024982;28;21153;-66
2023/12/05 01:28:47;;;;;;;38.50;20.17;;;0.50;29.20;;;;;;5022826;28;20466;-66
2023/12/05 01:31:13;;;;;;;30.80;18.47;;;0.40;29.20;;;;;;5022856;28;20462;-66
2023/12/05 01:33:40;;;;;;;30.80;18.90;;;0.40;29.50;;;;;;5022528;28;20486;-66
2023/12/05 01:36:10;;;;;;;34.40;20.90;;;0.50;29.90;;;;;;5025866;28;20856;-66
2023/12/05 01:38:37;;;;;;;32.30;19.10;;;0.50;30.30;;;;;;5026498;28;20451;-66
2023/12/05 01:41:07;;;;;;;31.10;19.07;;;0.60;30.20;;;;;;5025303;28;20458;-67
2023/12/05 01:43:33;;;;;;;32.63;18.40;;;0.60;30.40;;;;;;5024635;28;20462;-67
2023/12/05 01:46:02;;;;;;;31.73;19.30;;;0.60;30.40;;;;;;5024442;28;20451;-67
2023/12/05 01:48:31;;;;;;;30.40;19.77;;;0.70;30.40;;;;;;5027161;28;20461;-66
2023/12/05 01:50:58;;;;;;;30.47;19.20;;;0.70;30.40;;;;;;5027897;28;20483;-66
2023/12/05 01:53:26;;;;;;;33.27;20.20;;;0.70;30.40;;;;;;5027338;28;21064;-67
2023/12/05 01:55:52;;;;;;;34.63;20.40;;;0.80;30.10;;;;;;5029935;28;20514;-66
2023/12/05 01:58:21;;;;;;;34.67;21.13;;;0.80;30.20;;;;;;5029382;28;20463;-66
2023/12/05 02:00:48;;;;;;;36.70;21.50;;;0.80;30.20;;;;;;5027887;28;20471;-66
2023/12/05 02:03:15;;;;;;;35.87;19.23;;;1.00;30.10;;;;;;5028871;28;20454;-67
2023/12/05 02:05:42;;;;;;;36.33;21.27;;;0.90;30.10;;;;;;5023463;28;20944;-66
2023/12/05 02:08:11;;;;;;;37.80;22.27;;;1.00;30.00;;;;;;5030201;28;20495;-67
2023/12/05 02:10:39;;;;;;;34.87;20.63;;;1.00;29.80;;;;;;5026768;28;20463;-66
2023/12/05 02:13:06;;;;;;;32.50;19.60;;;1.00;29.80;;;;;;5027972;28;20864;-67
2023/12/05 02:15:34;;;;;;;35.43;20.73;;;1.10;29.60;;;;;;5027794;28;20463;-67
2023/12/05 02:18:07;;;;;;;34.03;19.67;;;1.10;29.60;;;;;;5024657;28;20493;-66
2023/12/05 02:20:45;;;;;;;33.27;18.40;;;1.20;29.60;;;;;;5026858;28;20470;-67
2023/12/05 02:23:46;;;;;;;34.57;20.07;;;1.20;29.50;;;;;;5028705;28;20841;-67
2023/12/05 02:26:26;;;;;;;33.37;20.33;;;1.20;29.40;;;;;;5022925;28;20470;-67
2023/12/05 02:28:55;;;;;;;33.03;18.33;;;1.30;29.30;;;;;;5027018;28;20978;-66
2023/12/05 02:31:21;;;;;;;25.97;17.43;;;1.30;29.70;;;;;;5027750;28;20455;-67
2023/12/05 02:33:49;;;;;;;33.20;18.80;;;1.40;29.80;;;;;;5027291;28;21034;-66
2023/12/05 02:36:24;;;;;;;31.77;18.47;;;1.40;29.80;;;;;;5027131;28;20576;-66
2023/12/05 02:39:03;;;;;;;29.53;18.27;;;1.50;30.10;;;;;;5026419;28;20561;-66
2023/12/05 02:41:33;;;;;;;28.67;16.60;;;1.50;30.50;;;;;;5027249;28;20514;-66
2023/12/05 02:44:06;;;;;;;26.40;16.40;;;1.50;30.60;;;;;;5027101;28;20466;-67
2023/12/05 02:46:35;;;;;;;28.40;17.20;;;1.60;31.10;;;;;;5028711;28;20613;-66
2023/12/05 02:49:04;;;;;;;27.47;15.70;;;1.60;31.40;;;;;;5029200;28;21010;-66
2023/12/05 02:51:31;;;;;;;29.37;16.03;;;1.60;31.70;;;;;;5029487;28;20471;-67
2023/12/05 02:54:01;;;;;;;28.93;16.97;;;1.60;31.90;;;;;;5028593;28;20471;-66
2023/12/05 02:56:28;;;;;;;26.60;15.00;;;1.60;32.10;;;;;;5022516;28;20575;-66
2023/12/05 02:58:55;;;;;;;26.90;15.90;;;1.60;32.20;;;;;;5026113;28;20479;-66
2023/12/05 03:01:24;;;;;;;25.97;15.47;;;1.70;32.20;;;;;;5025416;28;20467;-67
2023/12/05 03:03:50;;;;;;;26.30;14.90;;;1.70;32.30;;;;;;5026026;28;20578;-67
2023/12/05 03:06:17;;;;;;;23.50;14.77;;;1.60;32.10;;;;;;5029075;28;20581;-67
2023/12/05 03:08:44;;;;;;;29.30;18.80;;;1.60;32.40;;;;;;5024011;28;20837;-66
2023/12/05 03:11:11;;;;;;;26.97;15.90;;;1.60;32.50;;;;;;5022060;28;21029;-67
2023/12/05 03:13:41;;;;;;;29.67;15.90;;;1.50;32.70;;;;;;5027440;28;20455;-67
2023/12/05 03:16:09;;;;;;;28.53;16.33;;;1.50;32.60;;;;;;5028339;28;20459;-67
2023/12/05 03:18:37;;;;;;;29.50;16.70;;;1.50;32.60;;;;;;5026733;28;21142;-67
2023/12/05 03:21:04;;;;;;;25.83;15.53;;;1.50;32.20;;;;;;5021290;28;20459;-67
2023/12/05 03:23:31;;;;;;;30.90;19.93;;;1.50;32.00;;;;;;5024741;28;20465;-67
2023/12/05 03:25:58;;;;;;;36.17;22.20;;;1.40;31.40;;;;;;5021963;28;20462;-67
2023/12/05 03:28:25;;;;;;;32.43;18.77;;;1.30;31.00;;;;;;5033659;28;20886;-67
2023/12/05 03:30:52;;;;;;;34.00;22.30;;;1.20;30.70;;;;;;5030177;28;20541;-66
2023/12/05 03:33:19;;;;;;;32.17;22.47;;;1.30;30.80;;;;;;5023450;28;20899;-68
2023/12/05 03:35:47;;;;;;;35.83;22.00;;;1.20;30.50;;;;;;5027410;28;20463;-66
2023/12/05 03:38:14;;;;;;;34.83;21.97;;;1.10;30.00;;;;;;5027094;28;20479;-67
2023/12/05 03:40:41;;;;;;;33.10;22.73;;;1.00;30.00;;;;;;5027748;28;20463;-66
2023/12/05 03:43:08;;;;;;;36.77;22.87;;;1.00;29.80;;;;;;5024759;28;20546;-67
2023/12/05 03:45:34;;;;;;;35.20;22.90;;;0.90;29.70;;;;;;5027387;28;20461;-66
2023/12/05 03:48:01;;;;;;;35.37;22.70;;;0.90;29.40;;;;;;5024505;28;20995;-66
2023/12/05 03:50:28;;;;;;;34.80;21.27;;;0.90;29.30;;;;;;5027093;28;20545;-66
2023/12/05 03:52:56;;;;;;;35.13;22.27;;;0.80;29.30;;;;;;5027694;28;20459;-66
2023/12/05 03:55:23;;;;;;;30.77;18.33;;;0.80;29.10;;;;;;5020671;28;20462;-67
2023/12/05 03:57:50;;;;;;;30.53;19.20;;;0.70;29.40;;;;;;5022225;28;20487;-67
2023/12/05 04:00:18;;;;;;;31.90;19.50;;;0.80;29.40;;;;;;5025611;28;20463;-67
2023/12/05 04:02:44;;;;;;;31.73;19.23;;;0.70;29.50;;;;;;5027352;28;20465;-67
2023/12/05 04:05:11;;;;;;;32.37;18.30;;;0.70;29.50;;;;;;5023757;28;20462;-67
2023/12/05 04:07:38;;;;;;;34.90;20.37;;;0.70;29.60;;;;;;5026206;28;20483;-66
2023/12/05 04:10:10;;;;;;;33.03;20.00;;;0.70;29.60;;;;;;5027267;28;20467;-67
2023/12/05 04:12:38;;;;;;;29.57;18.80;;;0.70;29.60;;;;;;5028890;28;20451;-67
2023/12/05 04:15:07;;;;;;;33.10;18.00;;;0.70;29.60;;;;;;5027522;28;20463;-66
2023/12/05 04:17:34;;;;;;;35.53;19.37;;;0.70;29.80;;;;;;5024870;28;20491;-68
2023/12/05 04:20:01;;;;;;;28.20;16.43;;;0.70;29.70;;;;;;5020749;28;20463;-67
2023/12/05 04:22:28;;;;;;;27.30;16.17;;;0.80;29.80;;;;;;5023319;28;20478;-67
2023/12/05 04:24:55;;;;;;;34.67;18.17;;;0.80;29.80;;;;;;5021540;28;20467;-67
2023/12/05 04:27:23;;;;;;;33.30;15.40;;;0.90;30.10;;;;;;5003518;28;20494;-67
2023/12/05 04:29:50;;;;;;;27.40;14.40;;;1.00;30.10;;;;;;5024226;28;20475;-68
2023/12/05 04:32:17;;;;;;;28.17;14.93;;;1.10;30.60;;;;;;5026464;28;20482;-67
2023/12/05 04:34:45;;;;;;;25.80;15.10;;;1.10;30.90;;;;;;5021003;28;21285;-67
2023/12/05 04:37:12;;;;;;;28.40;13.53;;;1.20;31.60;;;;;;5025260;28;20975;-67
2023/12/05 04:39:39;;;;;;;26.10;14.90;;;1.30;31.60;;;;;;5023031;28;20928;-67
2023/12/05 04:42:06;;;;;;;22.70;12.53;;;1.40;31.60;;;;;;5023329;28;20956;-67
2023/12/05 04:44:34;;;;;;;30.70;13.47;;;1.40;31.70;;;;;;5026093;28;21023;-67
2023/12/05 04:47:01;;;;;;;26.53;14.07;;;1.50;31.70;;;;;;5023859;28;20838;-67
2023/12/05 04:49:28;;;;;;;23.83;12.33;;;1.50;31.70;;;;;;5024142;28;20550;-67
2023/12/05 04:51:55;;;;;;;29.10;15.10;;;1.50;31.40;;;;;;5017131;28;20502;-67
2023/12/05 04:54:22;;;;;;;29.63;13.93;;;1.60;31.60;;;;;;5024742;28;20468;-67
2023/12/05 04:56:49;;;;;;;27.80;13.27;;;1.60;31.40;;;;;;5025109;28;21013;-67
2023/12/05 04:59:16;;;;;;;29.80;13.47;;;1.70;31.50;;;;;;5022477;28;20557;-66
2023/12/05 05:01:44;;;;;;;23.57;12.60;;;1.70;31.50;;;;;;5024880;28;20835;-66
2023/12/05 05:04:11;;;;;;;24.63;12.30;;;1.70;31.50;;;;;;5021630;28;20458;-66
2023/12/05 05:06:38;;;;;;;23.40;13.27;;;1.80;31.60;;;;;;5024559;28;20553;-66
2023/12/05 05:09:05;;;;;;;24.07;13.70;;;1.70;31.80;;;;;;5022423;28;21050;-66
2023/12/05 05:11:32;;;;;;;23.70;13.00;;;1.80;31.90;;;;;;5025614;28;20467;-67
2023/12/05 05:13:59;;;;;;;26.80;13.60;;;1.80;32.00;;;;;;5026526;28;20470;-67
2023/12/05 05:16:26;;;;;;;23.50;13.73;;;1.80;32.00;;;;;;5025186;28;20489;-67
2023/12/05 05:18:55;;;;;;;25.70;13.23;;;1.90;32.30;;;;;;5025973;28;20479;-67
2023/12/05 05:21:21;;;;;;;32.63;14.20;;;1.90;32.40;;;;;;5022882;28;20472;-67
2023/12/05 05:23:48;;;;;;;24.53;12.80;;;1.90;32.30;;;;;;5026855;28;20537;-67
2023/12/05 05:26:15;;;;;;;24.20;12.23;;;2.00;32.20;;;;;;5024455;28;20505;-67
2023/12/05 05:28:42;;;;;;;27.40;13.30;;;2.00;32.30;;;;;;5029649;28;21018;-67
2023/12/05 05:31:09;;;;;;;24.03;12.67;;;2.00;32.30;;;;;;5029185;28;20489;-67
2023/12/05 05:33:36;;;;;;;24.20;12.27;;;2.10;32.40;;;;;;5026246;28;20461;-67
2023/12/05 05:36:05;;;;;;;25.27;12.07;;;2.10;32.30;;;;;;5028631;28;20465;-67
2023/12/05 05:38:32;;;;;;;29.03;13.07;;;2.10;32.40;;;;;;5029700;28;20479;-67
2023/12/05 05:41:06;;;;;;;23.73;12.37;;;2.20;32.30;;;;;;5029072;28;20563;-67
2023/12/05 05:43:33;;;;;;;27.10;12.43;;;2.20;32.30;;;;;;5029416;28;20960;-67
2023/12/05 05:46:01;;;;;;;23.53;12.70;;;2.20;32.20;;;;;;5026438;28;20454;-67
2023/12/05 05:48:27;;;;;;;22.03;11.13;;;2.20;32.10;;;;;;5028672;28;20490;-67
2023/12/05 05:50:54;;;;;;;29.40;12.63;;;2.30;32.10;;;;;;5027999;28;20459;-67
2023/12/05 05:53:23;;;;;;;29.63;14.00;;;2.30;32.10;;;;;;5027626;28;20458;-67
2023/12/05 05:55:49;;;;;;;25.50;11.87;;;2.30;32.00;;;;;;5025113;28;20455;-67
2023/12/05 05:58:16;;;;;;;20.43;11.80;;;2.40;31.80;;;;;;5028084;28;20482;-67
2023/12/05 06:00:43;;;;;;;23.63;12.63;;;2.40;31.80;;;;;;5026374;28;20462;-67
2023/12/05 06:03:10;;;;;;;24.13;12.70;;;2.40;31.80;;;;;;5025290;28;20791;-67
2023/12/05 06:05:37;;;;;;;25.33;15.03;;;2.40;31.80;;;;;;5025414;28;20575;-67
2023/12/05 06:08:04;;;;;;;23.40;13.30;;;2.40;31.60;;;;;;5029066;28;20979;-67
2023/12/05 06:10:32;;;;;;;26.17;13.80;;;2.40;31.50;;;;;;5028688;28;20481;-68
2023/12/05 06:12:59;;;;;;;24.10;12.73;;;2.40;31.50;;;;;;5029895;28;21165;-67
2023/12/05 06:15:26;;;;;;;30.40;15.00;;;2.40;31.50;;;;;;5022506;28;20474;-67
2023/12/05 06:17:53;;;;;;;34.07;15.87;;;2.30;31.50;;;;;;5028567;28;20493;-67
2023/12/05 06:20:20;;;;;;;26.43;14.37;;;2.40;31.60;;;;;;5024642;28;20454;-67
2023/12/05 06:22:47;;;;;;;29.77;14.27;;;2.30;31.60;;;;;;5029875;28;20454;-67
2023/12/05 06:25:14;;;;;;;24.47;12.80;;;2.30;31.50;;;;;;5028815;28;20492;-67
2023/12/05 06:27:44;;;;;;;24.13;13.17;;;2.20;31.40;;;;;;5042299;28;20479;-67
2023/12/05 06:30:12;;;;;;;29.13;14.60;;;2.20;31.50;;;;;;5039849;28;20491;-67
2023/12/05 06:32:39;;;;;;;29.40;15.10;;;2.20;31.40;;;;;;5024630;28;20486;-67
2023/12/05 06:35:07;;;;;;;25.97;14.50;;;2.20;31.50;;;;;;5029605;28;21171;-67
2023/12/05 06:37:34;;;;;;;26.17;15.40;;;2.10;31.40;;;;;;5068119;22;20495;-65
2023/12/05 06:40:01;;;;;;;30.00;14.97;;;2.10;31.50;;;;;;5068628;28;20461;-65
2023/12/05 06:42:28;;;;;;;30.37;15.97;;;2.10;31.50;;;;;;5068648;28;20461;-65
2023/12/05 06:44:56;;;;;;;30.23;15.20;;;2.00;31.40;;;;;;5067303;28;20470;-65
2023/12/05 06:47:23;;;;;;;25.27;14.03;;;2.00;31.50;;;;;;5069419;28;20837;-65
2023/12/05 06:49:49;;;;;;;27.73;14.40;;;2.00;31.50;;;;;;5083297;28;20512;-65
2023/12/05 06:52:16;;;;;;;25.07;14.00;;;2.00;31.50;;;;;;5070642;28;20977;-65
2023/12/05 06:54:43;;;;;;;26.83;14.23;;;1.90;31.50;;;;;;5067580;28;20575;-64
2023/12/05 06:57:10;;;;;;;28.03;14.40;;;1.90;31.60;;;;;;5066086;28;20491;-64
2023/12/05 06:59:38;;;;;;;26.47;15.13;;;1.90;31.70;;;;;;5069921;28;20820;-65
2023/12/05 07:02:07;;;;;;;29.03;13.40;;;1.90;31.80;;;;;;5069622;28;20500;-65
2023/12/05 07:04:33;;;;;;;26.07;13.20;;;1.90;32.00;;;;;;5069311;28;20549;-65
2023/12/05 07:07:00;;;;;;;25.73;13.90;;;2.00;31.90;;;;;;5070664;28;20503;-65
2023/12/05 07:09:27;;;;;;;25.73;13.83;;;2.00;31.90;;;;;;5066257;28;20971;-65
2023/12/05 07:11:54;;;;;;;23.07;12.10;;;2.00;31.80;;;;;;5069371;28;20459;-65
2023/12/05 07:14:21;;;;;;;21.67;13.23;;;2.10;32.20;;;;;;5077648;28;20548;-64
2023/12/05 07:16:47;;;;;;;26.33;13.37;;;2.00;31.60;;;;;;5069611;28;20499;-64
2023/12/05 07:19:16;;;;;;;26.00;14.13;;;2.00;31.80;;;;;;5067213;28;20477;-65
2023/12/05 07:21:42;;;;;;;23.90;12.53;;;2.00;31.90;;;;;;5068978;28;20532;-65
2023/12/05 07:24:09;;;;;;;24.23;12.10;;;2.00;32.00;;;;;;5068848;28;20453;-65
2023/12/05 07:26:36;;;;;;;23.47;13.33;;;2.00;32.10;;;;;;5064026;28;20563;-65
2023/12/05 07:29:03;;;;;;;34.33;20.73;;;2.00;32.10;;;;;;5067451;28;20453;-65
2023/12/05 07:31:30;;;;;;;36.00;17.97;;;2.10;32.20;;;;;;5067413;28;20476;-65
2023/12/05 07:33:58;;;;;;;30.60;15.80;;;2.10;32.20;;;;;;5066708;28;20465;-65
2023/12/05 07:36:26;;;;;;;32.93;15.60;;;2.20;32.10;;;;;;5067898;28;20492;-65
2023/12/05 07:38:53;;;;;;;30.33;15.27;;;2.20;32.00;;;;;;5068110;28;20552;-65
2023/12/05 07:41:20;;;;;;;35.43;16.47;;;2.20;31.80;;;;;;5066851;28;20457;-65
2023/12/05 07:43:49;;;;;;;26.83;15.70;;;2.30;31.80;;;;;;5068601;28;20526;-65
2023/12/05 07:46:16;;;;;;;27.53;14.70;;;2.30;32.40;;;;;;5067961;28;20505;-65
2023/12/05 07:48:43;;;;;;;28.27;12.97;;;2.40;31.80;;;;;;5067944;28;20463;-65
2023/12/05 07:51:14;;;;;;;23.10;13.53;;;2.40;31.60;;;;;;5067861;28;20457;-65
2023/12/05 07:53:42;;;;;;;25.70;13.77;;;2.40;32.10;;;;;;5066589;28;20467;-65
2023/12/05 07:56:10;;;;;;;29.73;14.03;;;2.60;31.50;;;;;;5067685;28;20457;-65
2023/12/05 07:58:37;;;;;;;23.67;11.77;;;2.60;31.40;;;;;;5067025;28;20479;-65
2023/12/05 08:01:04;;;;;;;29.63;15.00;;;2.60;31.20;;;;;;5067963;28;21092;-65
2023/12/05 08:03:33;;;;;;;28.63;14.10;;;2.60;31.10;;;;;;5068179;28;20457;-65
2023/12/05 08:06:01;;;;;;;31.23;14.30;;;2.70;31.20;;;;;;5066228;28;20934;-65
2023/12/05 08:08:30;;;;;;;27.60;13.83;;;2.70;31.00;;;;;;5062658;28;20456;-65
2023/12/05 08:10:58;;;;;;;27.73;16.10;;;2.80;31.60;;;;;;5067973;28;20553;-65
2023/12/05 08:13:25;;;;;;;31.27;18.10;;;2.90;31.00;;;;;;5066099;28;20460;-65
2023/12/05 08:15:52;;;;;;;29.13;18.10;;;2.90;30.80;;;;;;5067946;28;20909;-65
2023/12/05 08:18:19;;;;;;;28.03;16.77;;;3.00;30.60;;;;;;5067688;28;20487;-65
2023/12/05 08:20:46;;;;;;;31.43;17.17;;;3.10;30.30;;;;;;5065741;28;20459;-65
2023/12/05 08:23:13;;;;;;;32.77;20.50;;;3.10;29.80;;;;;;5067905;28;20453;-65
2023/12/05 08:25:40;;;;;;;35.37;20.87;;;3.20;30.30;;;;;;5067616;28;20459;-65
2023/12/05 08:28:08;;;;;;;33.70;20.50;;;3.20;29.60;;;;;;5068798;28;20583;-65
2023/12/05 08:30:35;;;;;;;27.00;17.90;;;3.20;29.50;;;;;;5068070;28;20465;-65
2023/12/05 08:33:02;;;;;;;26.27;17.10;;;3.30;29.60;;;;;;5067521;28;20465;-65
2023/12/05 08:35:29;;;;;;;24.97;15.50;;;3.40;29.50;;;;;;5064671;28;20480;-65
2023/12/05 08:37:56;;;;;;;32.10;17.43;;;3.50;30.00;;;;;;5062194;28;21196;-65
2023/12/05 08:40:23;;;;;;;25.33;16.70;;;4.10;31.90;;;;;;5065565;28;20456;-65
2023/12/05 08:42:49;;;;;;;25.93;15.73;;;4.70;31.20;;;;;;5067897;28;20457;-65
2023/12/05 08:45:18;;;;;;;22.77;13.57;;;4.70;29.10;;;;;;5066667;28;20453;-65
2023/12/05 08:47:45;;;;;;;21.83;14.60;;;4.80;28.80;;;;;;5066906;28;20516;-65
2023/12/05 08:50:12;;;;;;;23.70;13.67;;;4.80;27.40;;;;;;5067039;28;20463;-65
2023/12/05 08:52:39;;;;;;;25.50;14.50;;;4.80;26.50;;;;;;5059118;28;20563;-65
2023/12/05 08:55:07;;;;;;;27.67;14.07;;;4.80;25.70;;;;;;5066128;28;21004;-65
2023/12/05 08:57:34;;;;;;;25.47;14.90;;;4.80;25.30;;;;;;5063250;28;20492;-65
2023/12/05 09:00:02;;;;;;;34.90;19.20;;;4.90;24.90;;;;;;5060893;28;20845;-65
2023/12/05 09:02:31;;;;;;;30.17;17.80;;;4.90;24.70;;;;;;5062912;28;20524;-65
2023/12/05 09:04:57;;;;;;;30.07;17.80;;;4.90;24.60;;;;;;5064275;28;20778;-65
2023/12/05 09:07:24;;;;;;;28.33;16.13;;;4.90;24.20;;;;;;5062013;28;20503;-65
2023/12/05 09:09:51;;;;;;;25.30;15.67;;;4.90;24.10;;;;;;5062611;28;20453;-66
2023/12/05 09:12:18;;;;;;;23.20;15.20;;;5.00;23.90;;;;;;5067510;28;20461;-65
2023/12/05 09:14:45;;;;;;;24.23;15.60;;;5.10;24.00;;;;;;5067558;28;20507;-65
2023/12/05 09:17:13;;;;;;;25.87;15.77;;;5.50;23.80;;;;;;5059999;28;21185;-65
2023/12/05 09:19:41;;;;;;;22.40;14.60;;;5.90;23.10;;;;;;5065804;28;20476;-65
2023/12/05 09:22:08;;;;;;;24.03;15.73;;;6.30;22.10;;;;;;5067772;28;20457;-65
2023/12/05 09:24:34;;;;;;;23.17;15.20;;;6.70;21.00;;;;;;5067628;28;24037;-65
2023/12/05 09:27:02;;;;;;;20.50;13.33;;;7.10;19.60;;;;;;5068340;28;20468;-65
2023/12/05 09:29:31;;;;;;;22.50;13.33;;;7.50;18.90;;;;;;5062932;28;20453;-65
2023/12/05 09:31:57;;;;;;;24.07;13.67;;;7.90;17.70;;;;;;5067810;28;20476;-65
2023/12/05 09:34:24;;;;;;;19.60;11.93;;;8.40;15.60;;;;;;5063902;28;20466;-65
2023/12/05 09:36:52;;;;;;;16.30;11.00;;;9.00;15.00;;;;;;5067245;28;20481;-65
2023/12/05 09:39:19;;;;;;;15.97;9.77;;;9.50;13.90;;;;;;5067814;28;20483;-67
2023/12/05 09:41:51;;;;;;;15.77;9.27;;;9.70;13.00;;;;;;5062037;28;20577;-67
2023/12/05 09:44:21;;;;;;;13.00;8.90;;;10.00;12.40;;;;;;5063266;28;20458;-66
2023/12/05 09:46:52;;;;;;;14.00;9.23;;;10.10;11.60;;;;;;5069178;28;20480;-67
2023/12/05 09:49:21;;;;;;;13.37;10.30;;;9.90;11.30;;;;;;5063721;28;20453;-66
2023/12/05 09:51:48;;;;;;;16.07;10.80;;;9.60;11.00;;;;;;5064855;28;20459;-66
2023/12/05 09:54:16;;;;;;;13.27;10.53;;;9.30;11.10;;;;;;5063960;28;21084;-66
2023/12/05 09:56:43;;;;;;;16.43;10.40;;;9.10;11.80;;;;;;5065000;28;20480;-66
2023/12/05 09:59:11;;;;;;;14.97;9.67;;;8.90;12.20;;;;;;5067753;28;20531;-66
2023/12/05 10:01:41;;;;;;;15.90;10.53;;;8.70;12.40;;;;;;5067534;28;20487;-66
2023/12/05 10:04:11;;;;;;;12.73;8.93;;;8.40;12.80;;;;;;5067246;28;20457;-66
2023/12/05 10:06:39;;;;;;;14.87;8.57;;;8.20;13.60;;;;;;5067086;28;20487;-66
2023/12/05 10:09:07;;;;;;;14.07;9.53;;;8.20;14.50;;;;;;5071917;28;20531;-66
2023/12/05 10:11:36;;;;;;;13.00;8.90;;;8.40;15.30;;;;;;5072303;28;20656;-66
2023/12/05 10:14:03;;;;;;;16.40;8.03;;;8.70;15.20;;;;;;5068524;28;20453;-67
2023/12/05 10:16:32;;;;;;;13.70;8.90;;;9.00;15.00;;;;;;5069586;28;20559;-67
2023/12/05 10:18:59;;;;;;;15.53;8.90;;;9.40;14.20;;;;;;5069265;28;21117;-67
2023/12/05 10:21:26;;;;;;;13.80;8.53;;;9.70;14.10;;;;;;5065638;28;20847;-67
2023/12/05 10:23:54;;;;;;;12.33;8.80;;;10.10;13.20;;;;;;5070122;28;20831;-67
2023/12/05 10:26:21;;;;;;;13.63;8.83;;;10.30;12.20;;;;;;5068558;28;20472;-65
2023/12/05 10:28:53;;;;;;;11.70;7.50;;;10.60;11.60;;;;;;5068216;28;20461;-66
2023/12/05 10:31:20;;;;;;;12.40;8.00;;;10.90;10.30;;;;;;5066763;28;20465;-65
2023/12/05 10:33:49;;;;;;;11.20;7.90;;;11.00;9.20;;;;;;5067185;28;20458;-66
2023/12/05 10:36:17;;;;;;;12.27;6.43;;;11.20;9.00;;;;;;5069050;28;20539;-66
2023/12/05 10:38:44;;;;;;;12.60;6.83;;;11.30;8.80;;;;;;5067056;28;20530;-66
2023/12/05 10:41:11;;;;;;;9.63;6.43;;;11.50;8.60;;;;;;5069596;28;20457;-65
2023/12/05 10:43:40;;;;;;;9.67;6.60;;;11.70;8.50;;;;;;5068717;28;20449;-66
2023/12/05 10:46:08;;;;;;;9.77;5.70;;;11.90;7.40;;;;;;5067510;28;20450;-66
2023/12/05 10:48:36;;;;;;;10.10;5.70;;;12.10;6.80;;;;;;5069520;28;20544;-67
2023/12/05 10:51:03;;;;;;;10.60;5.30;;;12.10;5.90;;;;;;5068431;28;20816;-66
2023/12/05 10:53:29;;;;;;;10.10;5.37;;;12.20;5.90;;;;;;5067635;28;20845;-66
2023/12/05 10:55:57;;;;;;;7.80;5.20;;;12.20;6.10;;;;;;5064299;28;20445;-66
2023/12/05 10:58:24;;;;;;;9.20;4.50;;;12.30;5.80;;;;;;5068353;28;20956;-66
2023/12/05 11:00:51;;;;;;;7.10;4.33;;;12.30;6.00;;;;;;5065638;28;20475;-66
2023/12/05 11:03:20;;;;;;;8.80;4.37;;;12.20;5.30;;;;;;5070094;28;20544;-67
2023/12/05 11:05:47;;;;;;;7.47;3.70;;;12.20;5.90;;;;;;5067720;28;20461;-67
2023/12/05 11:08:14;;;;;;;6.47;3.70;;;12.20;5.40;;;;;;5066350;28;21008;-66
2023/12/05 11:10:41;;;;;;;8.37;3.60;;;12.10;6.00;;;;;;5061072;28;20460;-66
2023/12/05 11:13:12;;;;;;;6.87;3.70;;;12.10;5.40;;;;;;5072164;28;20459;-66
2023/12/05 11:15:42;;;;;;;6.40;3.30;;;12.10;5.90;;;;;;5065859;28;20457;-66
2023/12/05 11:18:16;;;;;;;7.30;3.57;;;12.20;5.70;;;;;;5072677;28;20998;-66
2023/12/05 11:21:01;;;;;;;9.13;4.00;;;12.30;5.40;;;;;;5069005;28;20485;-66
2023/12/05 11:23:50;;;;;;;6.80;2.97;;;12.40;5.80;;;;;;5066167;28;20461;-68
2023/12/05 11:26:34;;;;;;;6.37;3.00;;;12.50;5.00;;;;;;5059051;28;20473;-66
2023/12/05 11:29:14;;;;;;;7.00;3.43;;;12.70;4.60;;;;;;5065535;28;20553;-66
2023/12/05 11:31:49;;;;;;;6.33;3.47;;;12.90;3.70;;;;;;5071093;28;20953;-66
2023/12/05 11:34:31;;;;;;;6.67;3.97;;;13.10;3.50;;;;;;5058823;28;20460;-66
2023/12/05 11:37:19;;;;;;;7.43;3.93;;;13.30;3.10;;;;;;5066648;28;20484;-66
2023/12/05 11:39:46;;;;;;;6.20;2.70;;;13.50;2.40;;;;;;5064967;28;20722;-66
2023/12/05 11:42:14;;;;;;;6.87;3.60;;;13.60;2.50;;;;;;5064025;28;20934;-66
2023/12/05 11:44:42;;;;;;;6.40;3.67;;;13.60;2.20;;;;;;5063047;28;20511;-66
2023/12/05 11:47:15;;;;;;;7.20;3.80;;;13.70;1.90;;;;;;5068168;28;20489;-66
2023/12/05 11:50:02;;;;;;;7.33;3.63;;;13.70;1.70;;;;;;5061723;28;20465;-66
2023/12/05 11:52:37;;;;;;;5.30;3.07;;;14.00;1.50;;;;;;5066203;28;20468;-66
2023/12/05 11:55:05;;;;;;;7.43;3.73;;;14.30;1.40;;;;;;5069162;28;20457;-66
2023/12/05 11:57:33;;;;;;;5.80;3.00;;;14.40;1.00;;;;;;5064909;28;20477;-66
2023/12/05 12:00:00;;;;;;;7.00;2.60;;;14.50;1.00;;;;;;5067061;28;20949;-66
2023/12/05 12:02:42;;;;;;;7.80;4.23;;;14.10;1.10;;;;;;5064450;28;20473;-66
2023/12/05 12:05:10;;;;;;;5.77;3.10;;;14.10;1.50;;;;;;5066948;28;20457;-66
2023/12/05 12:07:45;;;;;;;5.20;2.90;;;14.40;1.10;;;;;;5067107;28;20514;-66
2023/12/05 12:10:13;;;;;;;5.00;2.67;;;14.50;1.00;;;;;;5065190;28;20456;-66
2023/12/05 12:12:40;;;;;;;5.27;2.60;;;14.60;1.00;;;;;;5068047;28;20457;-66
2023/12/05 12:15:08;;;;;;;5.73;3.10;;;14.50;1.00;;;;;;5065747;28;20461;-65
2023/12/05 12:17:34;;;;;;;7.13;2.90;;;14.20;1.00;;;;;;5068332;28;20477;-65
2023/12/05 12:20:01;;;;;;;5.60;3.10;;;14.10;1.00;;;;;;5066982;28;21012;-66
2023/12/05 12:22:28;;;;;;;6.77;3.10;;;14.10;1.00;;;;;;5068863;28;20548;-66
2023/12/05 12:25:09;;;;;;;6.33;2.90;;;13.70;1.10;;;;;;5068568;28;20464;-66
2023/12/05 12:27:38;;;;;;;5.20;2.70;;;13.30;2.10;;;;;;5063104;28;20480;-65
2023/12/05 12:30:07;;;;;;;5.03;2.70;;;13.10;2.50;;;;;;5068004;28;20456;-65
2023/12/05 12:32:34;;;;;;;5.50;2.70;;;12.80;2.90;;;;;;5067365;28;20485;-65
2023/12/05 12:35:02;;;;;;;5.60;2.83;;;12.60;3.20;;;;;;5069431;28;20838;-65
2023/12/05 12:37:28;;;;;;;5.80;2.93;;;12.40;3.80;;;;;;5065687;28;21539;-65
2023/12/05 12:39:56;;;;;;;5.83;2.80;;;12.30;4.20;;;;;;5069287;28;20560;-67
2023/12/05 12:42:25;;;;;;;7.10;3.30;;;11.90;4.70;;;;;;5067949;28;20540;-67
